createdAt,value
2023-04-09T00:00:43.751Z,101437.47
2023-04-09T00:02:47.047Z,101434.03
2023-04-09T00:04:50.281Z,101432.38
2023-04-09T00:06:55.604Z,101431.44
2023-04-09T00:08:58.428Z,101426.09
2023-04-09T00:11:07.358Z,101421.84
2023-04-09T00:13:10.241Z,101421.00
2023-04-09T00:15:27.868Z,101420.88
2023-04-09T00:17:36.507Z,101420.88
2023-04-09T00:19:42.368Z,101414.75
2023-04-09T00:21:47.276Z,101416.53
2023-04-09T00:23:50.297Z,101414.72
2023-04-09T00:25:55.665Z,101408.88
2023-04-09T00:28:01.467Z,101417.25
2023-04-09T00:30:08.462Z,101413.63
2023-04-09T00:32:11.406Z,101409.31
2023-04-09T00:34:15.836Z,101412.69
2023-04-09T00:36:18.742Z,101410.22
2023-04-09T00:38:21.556Z,101407.59
2023-04-09T00:40:27.077Z,101409.34
2023-04-09T00:42:32.884Z,101404.19
2023-04-09T00:44:35.758Z,101409.97
2023-04-09T00:46:38.994Z,101402.88
2023-04-09T00:48:41.881Z,101407.09
2023-04-09T00:50:46.190Z,101408.03
2023-04-09T00:52:49.060Z,101408.94
2023-04-09T00:54:53.493Z,101403.78
2023-04-09T00:56:57.058Z,101413.38
2023-04-09T00:59:00.606Z,101412.34
2023-04-09T01:01:03.549Z,101418.41
2023-04-09T01:03:07.684Z,101412.34
2023-04-09T01:05:11.687Z,101416.53
2023-04-09T01:07:22.650Z,101406.97
2023-04-09T01:09:29.500Z,101406.06
2023-04-09T01:11:38.857Z,101405.03
2023-04-09T01:13:49.263Z,101406.13
2023-04-09T01:15:57.057Z,101407.50
2023-04-09T01:18:07.118Z,101410.97
2023-04-09T01:20:14.716Z,101399.56
2023-04-09T01:22:30.528Z,101404.84
2023-04-09T01:24:46.035Z,101405.50
2023-04-09T01:26:59.488Z,101411.44
2023-04-09T01:29:11.616Z,101407.84
2023-04-09T01:31:16.484Z,101405.16
2023-04-09T01:33:21.733Z,101403.50
2023-04-09T01:35:26.951Z,101401.03
2023-04-09T01:37:30.389Z,101399.09
2023-04-09T01:39:33.875Z,101407.75
2023-04-09T01:41:38.334Z,101412.94
2023-04-09T01:43:42.482Z,101407.81
2023-04-09T01:45:47.474Z,101402.69
2023-04-09T01:47:50.584Z,101405.38
2023-04-09T01:49:53.813Z,101410.31
2023-04-09T01:51:56.884Z,101411.03
2023-04-09T01:54:00.347Z,101411.13
2023-04-09T01:56:03.633Z,101411.09
2023-04-09T01:58:06.655Z,101411.00
2023-04-09T02:00:11.372Z,101415.50
2023-04-09T02:02:35.766Z,101410.25
2023-04-09T02:04:42.654Z,101407.94
2023-04-09T02:06:49.592Z,101412.88
2023-04-09T02:08:54.217Z,101415.34
2023-04-09T02:10:59.070Z,101418.63
2023-04-09T02:13:03.319Z,101414.53
2023-04-09T02:15:08.386Z,101415.41
2023-04-09T02:17:11.215Z,101413.72
2023-04-09T02:19:15.635Z,101415.13
2023-04-09T02:21:18.667Z,101419.22
2023-04-09T02:23:22.036Z,101415.22
2023-04-09T02:25:26.022Z,101417.59
2023-04-09T02:27:28.964Z,101415.59
2023-04-09T02:29:31.925Z,101421.56
2023-04-09T02:31:34.881Z,101415.78
2023-04-09T02:33:37.689Z,101415.88
2023-04-09T02:35:41.982Z,101408.56
2023-04-09T02:37:44.781Z,101406.13
2023-04-09T02:39:47.674Z,101411.47
2023-04-09T02:41:50.519Z,101410.84
2023-04-09T02:43:53.292Z,101405.47
2023-04-09T02:45:56.134Z,101412.53
2023-04-09T02:47:58.986Z,101409.88
2023-04-09T02:50:01.732Z,101407.88
2023-04-09T02:52:10.968Z,101402.72
2023-04-09T02:54:13.778Z,101405.34
2023-04-09T02:56:16.669Z,101407.56
2023-04-09T02:58:19.570Z,101415.44
2023-04-09T03:00:22.483Z,101409.31
2023-04-09T03:02:25.600Z,101412.72
2023-04-09T03:04:28.564Z,101410.94
2023-04-09T03:06:32.536Z,101410.25
2023-04-09T03:08:36.912Z,101406.78
2023-04-09T03:10:39.717Z,101403.34
2023-04-09T03:12:44.495Z,101397.13
2023-04-09T03:14:47.410Z,101398.81
2023-04-09T03:16:50.232Z,101398.81
2023-04-09T03:18:53.294Z,101402.31
2023-04-09T03:20:56.403Z,101399.72
2023-04-09T03:22:59.634Z,101398.09
2023-04-09T03:25:12.200Z,101402.47
2023-04-09T03:27:15.592Z,101394.47
2023-04-09T03:29:18.542Z,101394.63
2023-04-09T03:31:21.489Z,101397.94
2023-04-09T03:33:24.596Z,101394.22
2023-04-09T03:35:30.746Z,101390.75
2023-04-09T03:37:35.810Z,101388.97
2023-04-09T03:39:39.026Z,101401.00
2023-04-09T03:41:43.222Z,101395.72
2023-04-09T03:43:49.910Z,101398.44
2023-04-09T03:45:57.346Z,101394.56
2023-04-09T03:48:02.684Z,101393.69
2023-04-09T03:50:06.218Z,101393.56
2023-04-09T03:52:20.751Z,101386.16
2023-04-09T03:54:31.419Z,101389.47
2023-04-09T03:56:34.665Z,101391.50
2023-04-09T03:58:40.859Z,101401.88
2023-04-09T04:00:45.006Z,101389.03
2023-04-09T04:03:05.222Z,101391.50
2023-04-09T04:05:27.566Z,101389.03
2023-04-09T04:07:33.741Z,101393.13
2023-04-09T04:09:42.818Z,101397.59
2023-04-09T04:11:48.983Z,101387.94
2023-04-09T04:13:55.718Z,101388.03
2023-04-09T04:15:59.564Z,101399.16
2023-04-09T04:18:02.510Z,101392.25
2023-04-09T04:20:15.463Z,101393.75
2023-04-09T04:22:30.141Z,101392.94
2023-04-09T04:24:36.146Z,101392.13
2023-04-09T04:26:40.661Z,101394.81
2023-04-09T04:28:44.504Z,101400.81
2023-04-09T04:30:54.186Z,101398.31
2023-04-09T04:32:57.103Z,101399.91
2023-04-09T04:35:00.672Z,101399.03
2023-04-09T04:37:03.611Z,101403.84
2023-04-09T04:39:08.698Z,101396.44
2023-04-09T04:41:31.823Z,101404.88
2023-04-09T04:43:48.349Z,101409.84
2023-04-09T04:45:57.661Z,101407.22
2023-04-09T04:48:03.321Z,101404.56
2023-04-09T04:50:08.622Z,101413.31
2023-04-09T04:52:24.160Z,101409.81
2023-04-09T04:54:29.262Z,101414.22
2023-04-09T04:56:34.012Z,101422.84
2023-04-09T04:58:54.740Z,101411.63
2023-04-09T05:01:00.372Z,101419.50
2023-04-09T05:03:03.408Z,101403.03
2023-04-09T05:05:22.659Z,101416.78
2023-04-09T05:07:29.456Z,101408.06
2023-04-09T05:09:33.404Z,101416.63
2023-04-09T05:11:40.153Z,101419.06
2023-04-09T05:13:49.753Z,101415.50
2023-04-09T05:15:52.728Z,101423.19
2023-04-09T05:17:57.988Z,101412.88
2023-04-09T05:20:00.920Z,101420.69
2023-04-09T05:22:12.761Z,101418.47
2023-04-09T05:24:15.595Z,101421.00
2023-04-09T05:26:18.435Z,101417.69
2023-04-09T05:28:28.410Z,101423.69
2023-04-09T05:30:41.453Z,101418.78
2023-04-09T05:32:45.025Z,101420.44
2023-04-09T05:34:49.420Z,101423.31
2023-04-09T05:36:53.073Z,101431.78
2023-04-09T05:38:58.068Z,101422.22
2023-04-09T05:41:01.471Z,101426.44
2023-04-09T05:43:04.453Z,101427.31
2023-04-09T05:45:18.189Z,101416.81
2023-04-09T05:47:25.651Z,101426.25
2023-04-09T05:49:55.998Z,101424.44
2023-04-09T05:51:58.918Z,101432.19
2023-04-09T05:54:04.879Z,101427.09
2023-04-09T05:56:15.575Z,101426.16
2023-04-09T05:58:26.174Z,101433.94
2023-04-09T06:00:29.730Z,101432.28
2023-04-09T06:02:32.678Z,101432.19
2023-04-09T06:04:36.504Z,101436.53
2023-04-09T06:06:41.250Z,101431.63
2023-04-09T06:08:44.904Z,101437.59
2023-04-09T06:10:50.081Z,101439.47
2023-04-09T06:12:52.875Z,101435.97
2023-04-09T06:14:55.683Z,101436.19
2023-04-09T06:16:59.843Z,101441.09
2023-04-09T06:19:02.702Z,101444.41
2023-04-09T06:21:06.322Z,101438.72
2023-04-09T06:23:11.434Z,101441.44
2023-04-09T06:25:14.340Z,101448.47
2023-04-09T06:27:18.978Z,101444.19
2023-04-09T06:29:24.178Z,101447.69
2023-04-09T06:31:27.390Z,101452.03
2023-04-09T06:33:30.339Z,101450.44
2023-04-09T06:35:33.265Z,101450.44
2023-04-09T06:37:36.139Z,101458.13
2023-04-09T06:39:47.654Z,101448.59
2023-04-09T06:42:01.092Z,101446.25
2023-04-09T06:44:16.208Z,101449.72
2023-04-09T06:46:20.328Z,101449.09
2023-04-09T06:48:23.225Z,101461.41
2023-04-09T06:50:26.045Z,101453.63
2023-04-09T06:52:28.844Z,101462.38
2023-04-09T06:54:31.658Z,101459.19
2023-04-09T06:56:35.986Z,101456.06
2023-04-09T06:58:38.817Z,101461.34
2023-04-09T07:00:41.590Z,101460.63
2023-04-09T07:02:44.784Z,101453.84
2023-04-09T07:04:48.442Z,101450.59
2023-04-09T07:06:51.539Z,101454.22
2023-04-09T07:08:54.606Z,101453.59
2023-04-09T07:10:57.713Z,101450.13
2023-04-09T07:13:02.574Z,101449.53
2023-04-09T07:15:07.365Z,101451.38
2023-04-09T07:17:09.996Z,101450.50
2023-04-09T07:19:12.970Z,101448.06
2023-04-09T07:21:16.286Z,101442.00
2023-04-09T07:23:19.088Z,101455.16
2023-04-09T07:25:22.313Z,101458.72
2023-04-09T07:27:27.451Z,101454.25
2023-04-09T07:29:31.612Z,101445.75
2023-04-09T07:31:35.857Z,101447.66
2023-04-09T07:33:38.958Z,101450.44
2023-04-09T07:35:42.279Z,101447.53
2023-04-09T07:37:45.284Z,101454.41
2023-04-09T07:39:48.520Z,101454.59
2023-04-09T07:41:51.324Z,101456.16
2023-04-09T07:43:54.144Z,101455.09
2023-04-09T07:45:58.267Z,101462.00
2023-04-09T07:48:01.134Z,101457.72
2023-04-09T07:50:04.028Z,101450.13
2023-04-09T07:52:07.174Z,101463.06
2023-04-09T07:54:10.439Z,101461.88
2023-04-09T07:56:13.672Z,101455.25
2023-04-09T07:58:16.712Z,101456.59
2023-04-09T08:00:20.392Z,101446.56
2023-04-09T08:02:26.860Z,101460.47
2023-04-09T08:04:30.701Z,101467.44
2023-04-09T08:06:33.624Z,101467.72
2023-04-09T08:08:36.464Z,101468.28
2023-04-09T08:10:39.308Z,101463.47
2023-04-09T08:12:42.158Z,101466.00
2023-04-09T08:14:44.961Z,101463.84
2023-04-09T08:16:50.130Z,101465.56
2023-04-09T08:18:55.059Z,101462.91
2023-04-09T08:20:58.632Z,101466.03
2023-04-09T08:23:01.767Z,101460.66
2023-04-09T08:25:04.858Z,101460.75
2023-04-09T08:27:07.617Z,101457.28
2023-04-09T08:29:12.874Z,101458.44
2023-04-09T08:31:15.731Z,101456.94
2023-04-09T08:33:18.614Z,101458.53
2023-04-09T08:35:22.773Z,101463.16
2023-04-09T08:37:26.740Z,101466.84
2023-04-09T08:39:29.713Z,101469.66
2023-04-09T08:41:32.582Z,101464.88
2023-04-09T08:43:53.276Z,101465.97
2023-04-09T08:46:00.830Z,101460.56
2023-04-09T08:48:04.698Z,101466.59
2023-04-09T08:50:08.369Z,101464.41
2023-04-09T08:52:12.541Z,101461.09
2023-04-09T08:54:17.012Z,101467.75
2023-04-09T08:56:21.270Z,101471.47
2023-04-09T08:58:24.034Z,101468.88
2023-04-09T09:00:27.160Z,101475.56
2023-04-09T09:02:31.400Z,101482.56
2023-04-09T09:04:45.656Z,101479.47
2023-04-09T09:06:48.412Z,101487.91
2023-04-09T09:09:06.792Z,101477.78
2023-04-09T09:11:09.651Z,101485.88
2023-04-09T09:13:24.246Z,101479.03
2023-04-09T09:15:28.511Z,101479.97
2023-04-09T09:17:31.636Z,101481.09
2023-04-09T09:19:35.121Z,101477.28
2023-04-09T09:21:38.661Z,101470.41
2023-04-09T09:23:42.401Z,101471.69
2023-04-09T09:25:46.658Z,101480.44
2023-04-09T09:27:49.573Z,101477.19
2023-04-09T09:29:52.386Z,101485.84
2023-04-09T09:31:56.250Z,101470.19
2023-04-09T09:34:01.084Z,101475.53
2023-04-09T09:36:04.591Z,101475.78
2023-04-09T09:38:07.410Z,101471.53
2023-04-09T09:40:11.643Z,101464.69
2023-04-09T09:42:15.801Z,101458.47
2023-04-09T09:44:32.600Z,101469.03
2023-04-09T09:46:38.358Z,101457.41
2023-04-09T09:48:41.333Z,101462.69
2023-04-09T09:50:46.177Z,101467.94
2023-04-09T09:52:49.066Z,101462.84
2023-04-09T09:54:53.780Z,101463.03
2023-04-09T09:56:59.794Z,101449.81
2023-04-09T09:59:08.506Z,101461.69
2023-04-09T10:01:14.528Z,101460.44
2023-04-09T10:03:24.307Z,101457.81
2023-04-09T10:05:28.855Z,101451.06
2023-04-09T10:07:32.033Z,101449.28
2023-04-09T10:09:36.478Z,101445.25
2023-04-09T10:11:42.525Z,101446.47
2023-04-09T10:13:50.136Z,101447.88
2023-04-09T10:15:54.817Z,101445.94
2023-04-09T10:17:58.656Z,101442.75
2023-04-09T10:20:11.429Z,101445.06
2023-04-09T10:22:19.240Z,101446.41
2023-04-09T10:24:22.953Z,101441.75
2023-04-09T10:26:28.803Z,101438.38
2023-04-09T10:28:32.124Z,101448.09
2023-04-09T10:30:36.524Z,101444.63
2023-04-09T10:32:40.674Z,101443.94
2023-04-09T10:34:44.985Z,101443.38
2023-04-09T10:36:52.995Z,101434.03
2023-04-09T10:38:56.852Z,101427.75
2023-04-09T10:40:59.702Z,101431.22
2023-04-09T10:43:04.034Z,101432.16
2023-04-09T10:45:09.042Z,101430.75
2023-04-09T10:47:13.025Z,101425.66
2023-04-09T10:49:19.478Z,101434.50
2023-04-09T10:51:22.395Z,101425.03
2023-04-09T10:53:27.635Z,101430.03
2023-04-09T10:55:38.213Z,101419.88
2023-04-09T10:57:44.110Z,101423.06
2023-04-09T10:59:48.392Z,101420.53
2023-04-09T11:01:54.483Z,101425.84
2023-04-09T11:04:13.870Z,101422.34
2023-04-09T11:06:22.040Z,101416.16
2023-04-09T11:08:24.892Z,101416.34
2023-04-09T11:10:28.363Z,101407.97
2023-04-09T11:12:31.215Z,101413.41
2023-04-09T11:14:34.831Z,101411.72
2023-04-09T11:16:37.771Z,101409.22
2023-04-09T11:18:40.751Z,101412.44
2023-04-09T11:20:44.093Z,101402.50
2023-04-09T11:22:48.463Z,101402.16
2023-04-09T11:24:51.837Z,101410.97
2023-04-09T11:26:56.737Z,101396.88
2023-04-09T11:28:59.541Z,101400.41
2023-04-09T11:31:06.201Z,101401.13
2023-04-09T11:33:09.155Z,101400.94
2023-04-09T11:35:14.044Z,101399.06
2023-04-09T11:37:17.669Z,101398.81
2023-04-09T11:39:21.936Z,101403.94
2023-04-09T11:41:34.748Z,101400.22
2023-04-09T11:43:37.588Z,101403.72
2023-04-09T11:45:40.394Z,101403.50
2023-04-09T11:47:45.178Z,101404.69
2023-04-09T11:49:47.973Z,101403.56
2023-04-09T11:51:51.062Z,101409.59
2023-04-09T11:53:54.343Z,101406.13
2023-04-09T11:55:58.555Z,101404.28
2023-04-09T11:58:02.771Z,101407.56
2023-04-09T12:00:09.001Z,101402.44
2023-04-09T12:02:12.026Z,101401.00
2023-04-09T12:04:21.225Z,101404.34
2023-04-09T12:06:25.458Z,101405.16
2023-04-09T12:08:28.611Z,101406.28
2023-04-09T12:10:33.744Z,101403.63
2023-04-09T12:12:45.522Z,101404.59
2023-04-09T12:14:48.502Z,101408.03
2023-04-09T12:16:54.336Z,101402.81
2023-04-09T12:18:57.151Z,101401.34
2023-04-09T12:21:01.305Z,101399.69
2023-04-09T12:23:06.093Z,101398.84
2023-04-09T12:25:09.310Z,101402.34
2023-04-09T12:27:12.027Z,101397.31
2023-04-09T12:29:17.418Z,101394.00
2023-04-09T12:31:20.219Z,101387.13
2023-04-09T12:33:23.004Z,101386.53
2023-04-09T12:35:25.964Z,101381.47
2023-04-09T12:37:28.893Z,101385.59
2023-04-09T12:39:33.814Z,101379.41
2023-04-09T12:41:37.512Z,101379.34
2023-04-09T12:43:40.402Z,101376.22
2023-04-09T12:45:44.598Z,101381.47
2023-04-09T12:47:47.558Z,101382.31
2023-04-09T12:49:50.643Z,101375.25
2023-04-09T12:51:53.505Z,101372.59
2023-04-09T12:53:56.304Z,101367.28
2023-04-09T12:55:59.436Z,101369.09
2023-04-09T12:58:02.687Z,101360.47
2023-04-09T13:00:07.586Z,101358.91
2023-04-09T13:02:11.955Z,101359.13
2023-04-09T13:04:15.367Z,101358.34
2023-04-09T13:06:18.212Z,101348.78
2023-04-09T13:08:21.026Z,101348.09
2023-04-09T13:10:23.776Z,101338.63
2023-04-09T13:12:26.631Z,101341.31
2023-04-09T13:14:29.465Z,101337.84
2023-04-09T13:16:32.793Z,101336.06
2023-04-09T13:18:37.357Z,101350.16
2023-04-09T13:20:40.402Z,101340.63
2023-04-09T13:22:46.939Z,101338.84
2023-04-09T13:24:49.769Z,101332.59
2023-04-09T13:26:52.613Z,101336.78
2023-04-09T13:28:55.430Z,101327.13
2023-04-09T13:30:58.326Z,101322.00
2023-04-09T13:33:01.394Z,101322.91
2023-04-09T13:35:07.234Z,101313.44
2023-04-09T13:37:10.031Z,101316.16
2023-04-09T13:39:12.818Z,101312.72
2023-04-09T13:41:16.066Z,101311.84
2023-04-09T13:43:18.926Z,101306.59
2023-04-09T13:45:23.730Z,101306.59
2023-04-09T13:47:26.605Z,101297.00
2023-04-09T13:49:30.664Z,101296.19
2023-04-09T13:51:35.009Z,101290.06
2023-04-09T13:53:37.754Z,101289.22
2023-04-09T13:55:40.708Z,101299.75
2023-04-09T13:57:43.580Z,101288.34
2023-04-09T13:59:46.389Z,101287.47
2023-04-09T14:01:49.261Z,101287.47
2023-04-09T14:03:52.391Z,101292.72
2023-04-09T14:05:56.103Z,101288.34
2023-04-09T14:08:00.220Z,101294.47
2023-04-09T14:10:03.093Z,101282.13
2023-04-09T14:12:06.448Z,101290.03
2023-04-09T14:14:09.334Z,101290.06
2023-04-09T14:16:12.248Z,101290.94
2023-04-09T14:18:15.435Z,101288.34
2023-04-09T14:20:19.971Z,101285.69
2023-04-09T14:22:22.747Z,101284.84
2023-04-09T14:24:26.882Z,101276.09
2023-04-09T14:26:29.947Z,101275.19
2023-04-09T14:28:33.099Z,101269.06
2023-04-09T14:30:35.963Z,101265.56
2023-04-09T14:32:38.823Z,101266.44
2023-04-09T14:34:41.651Z,101264.69
2023-04-09T14:36:44.430Z,101267.31
2023-04-09T14:38:48.476Z,101262.94
2023-04-09T14:40:52.845Z,101263.81
2023-04-09T14:42:55.677Z,101256.78
2023-04-09T14:44:58.403Z,101249.78
2023-04-09T14:47:01.227Z,101246.28
2023-04-09T14:49:04.088Z,101251.53
2023-04-09T14:51:07.692Z,101245.41
2023-04-09T14:53:10.752Z,101248.06
2023-04-09T14:55:13.674Z,101254.19
2023-04-09T14:57:17.862Z,101248.94
2023-04-09T14:59:20.780Z,101251.56
2023-04-09T15:01:23.594Z,101252.44
2023-04-09T15:03:26.615Z,101243.69
2023-04-09T15:05:29.589Z,101239.28
2023-04-09T15:07:32.467Z,101233.13
2023-04-09T15:09:35.334Z,101239.25
2023-04-09T15:11:38.189Z,101240.09
2023-04-09T15:13:42.314Z,101243.63
2023-04-09T15:15:45.265Z,101231.38
2023-04-09T15:17:48.094Z,101235.75
2023-04-09T15:19:51.547Z,101234.91
2023-04-09T15:21:54.339Z,101241.00
2023-04-09T15:23:58.876Z,101230.53
2023-04-09T15:26:01.561Z,101238.41
2023-04-09T15:28:04.479Z,101233.16
2023-04-09T15:30:09.829Z,101229.66
2023-04-09T15:32:12.696Z,101234.03
2023-04-09T15:34:15.893Z,101231.41
2023-04-09T15:36:18.666Z,101231.41
2023-04-09T15:38:24.924Z,101234.03
2023-04-09T15:40:28.937Z,101223.50
2023-04-09T15:42:31.723Z,101231.41
2023-04-09T15:44:34.651Z,101231.38
2023-04-09T15:46:39.888Z,101226.13
2023-04-09T15:48:42.873Z,101229.66
2023-04-09T15:50:45.693Z,101232.28
2023-04-09T15:52:48.747Z,101229.66
2023-04-09T15:54:51.567Z,101228.78
2023-04-09T15:56:54.395Z,101227.00
2023-04-09T15:58:57.217Z,101230.50
2023-04-09T16:01:01.368Z,101227.84
2023-04-09T16:03:05.672Z,101223.44
2023-04-09T16:05:09.009Z,101228.72
2023-04-09T16:07:12.066Z,101224.34
2023-04-09T16:09:14.972Z,101213.81
2023-04-09T16:11:19.743Z,101216.41
2023-04-09T16:13:22.506Z,101218.13
2023-04-09T16:15:26.292Z,101213.81
2023-04-09T16:17:29.320Z,101212.91
2023-04-09T16:19:33.506Z,101213.81
2023-04-09T16:21:36.793Z,101215.59
2023-04-09T16:23:40.756Z,101220.00
2023-04-09T16:25:43.582Z,101218.22
2023-04-09T16:27:46.323Z,101213.88
2023-04-09T16:29:49.411Z,101208.63
2023-04-09T16:31:52.706Z,101213.84
2023-04-09T16:33:55.586Z,101216.44
2023-04-09T16:35:59.719Z,101214.69
2023-04-09T16:38:02.598Z,101212.94
2023-04-09T16:40:05.785Z,101204.19
2023-04-09T16:42:09.428Z,101218.16
2023-04-09T16:44:12.254Z,101215.59
2023-04-09T16:46:15.199Z,101208.56
2023-04-09T16:48:18.031Z,101212.13
2023-04-09T16:50:20.921Z,101213.91
2023-04-09T16:52:25.125Z,101212.16
2023-04-09T16:54:28.995Z,101211.28
2023-04-09T16:56:31.870Z,101215.66
2023-04-09T16:58:35.086Z,101209.50
2023-04-09T17:00:39.836Z,101205.13
2023-04-09T17:02:42.816Z,101204.22
2023-04-09T17:04:45.673Z,101203.34
2023-04-09T17:06:48.421Z,101208.59
2023-04-09T17:08:52.809Z,101211.22
2023-04-09T17:11:01.814Z,101203.31
2023-04-09T17:13:04.726Z,101211.19
2023-04-09T17:15:08.665Z,101205.06
2023-04-09T17:17:12.245Z,101210.25
2023-04-09T17:19:15.104Z,101212.03
2023-04-09T17:21:17.886Z,101207.63
2023-04-09T17:23:21.576Z,101221.59
2023-04-09T17:25:25.801Z,101220.66
2023-04-09T17:27:28.787Z,101223.28
2023-04-09T17:29:31.872Z,101215.28
2023-04-09T17:31:35.736Z,101223.13
2023-04-09T17:33:38.526Z,101222.28
2023-04-09T17:35:43.033Z,101225.75
2023-04-09T17:37:46.530Z,101229.22
2023-04-09T17:39:49.353Z,101234.44
2023-04-09T17:41:56.293Z,101237.03
2023-04-09T17:43:59.237Z,101236.19
2023-04-09T17:46:04.994Z,101233.47
2023-04-09T17:48:07.942Z,101239.56
2023-04-09T17:50:11.298Z,101240.44
2023-04-09T17:52:14.672Z,101236.94
2023-04-09T17:54:17.565Z,101232.50
2023-04-09T17:56:22.575Z,101237.72
2023-04-09T17:58:26.993Z,101235.06
2023-04-09T18:00:29.862Z,101238.47
2023-04-09T18:02:33.374Z,101246.28
2023-04-09T18:04:36.473Z,101232.28
2023-04-09T18:06:39.638Z,101234.91
2023-04-09T18:08:43.361Z,101246.22
2023-04-09T18:11:01.590Z,101252.28
2023-04-09T18:13:13.997Z,101258.34
2023-04-09T18:15:19.154Z,101258.34
2023-04-09T18:17:22.203Z,101257.44
2023-04-09T18:19:25.317Z,101257.44
2023-04-09T18:21:28.499Z,101255.63
2023-04-09T18:23:31.255Z,101265.19
2023-04-09T18:25:34.098Z,101266.88
2023-04-09T18:27:37.208Z,101264.22
2023-04-09T18:29:39.992Z,101267.69
2023-04-09T18:31:44.196Z,101260.63
2023-04-09T18:33:47.136Z,101264.06
2023-04-09T18:35:49.970Z,101263.09
2023-04-09T18:37:52.855Z,101262.19
2023-04-09T18:39:55.652Z,101276.94
2023-04-09T18:41:58.563Z,101274.28
2023-04-09T18:44:01.415Z,101281.16
2023-04-09T18:46:04.430Z,101283.75
2023-04-09T18:48:09.010Z,101274.09
2023-04-09T18:50:14.998Z,101280.16
2023-04-09T18:52:17.840Z,101273.16
2023-04-09T18:54:20.799Z,101276.63
2023-04-09T18:56:24.580Z,101271.31
2023-04-09T18:58:27.427Z,101279.09
2023-04-09T19:00:30.199Z,101285.97
2023-04-09T19:02:33.200Z,101277.22
2023-04-09T19:04:39.961Z,101290.19
2023-04-09T19:06:44.539Z,101290.97
2023-04-09T19:08:48.301Z,101288.28
2023-04-09T19:10:51.316Z,101283.88
2023-04-09T19:12:54.545Z,101291.66
2023-04-09T19:15:00.190Z,101284.69
2023-04-09T19:17:03.150Z,101288.97
2023-04-09T19:19:05.918Z,101290.66
2023-04-09T19:21:10.446Z,101289.72
2023-04-09T19:23:13.229Z,101287.88
2023-04-09T19:25:16.475Z,101283.41
2023-04-09T19:27:19.504Z,101283.38
2023-04-09T19:29:22.284Z,101284.16
2023-04-09T19:31:25.355Z,101284.97
2023-04-09T19:33:28.263Z,101284.03
2023-04-09T19:35:35.756Z,101288.34
2023-04-09T19:37:40.319Z,101283.09
2023-04-09T19:39:43.238Z,101293.50
2023-04-09T19:41:46.011Z,101284.81
2023-04-09T19:43:48.870Z,101289.16
2023-04-09T19:45:51.785Z,101297.81
2023-04-09T19:47:55.822Z,101292.53
2023-04-09T19:49:58.861Z,101295.06
2023-04-09T19:52:02.073Z,101290.63
2023-04-09T19:54:06.287Z,101292.31
2023-04-09T19:56:09.164Z,101287.84
2023-04-09T19:58:11.933Z,101281.63
2023-04-09T20:00:16.169Z,101282.41
2023-04-09T20:02:19.110Z,101287.53
2023-04-09T20:04:24.476Z,101296.16
2023-04-09T20:06:28.832Z,101303.91
2023-04-09T20:08:31.777Z,101302.03
2023-04-09T20:10:39.580Z,101304.69
2023-04-09T20:12:42.946Z,101305.41
2023-04-09T20:14:46.577Z,101300.19
2023-04-09T20:16:49.413Z,101304.41
2023-04-09T20:18:52.631Z,101300.84
2023-04-09T20:20:55.524Z,101301.66
2023-04-09T20:22:58.376Z,101289.50
2023-04-09T20:25:01.619Z,101298.94
2023-04-09T20:27:05.896Z,101293.59
2023-04-09T20:29:09.784Z,101297.84
2023-04-09T20:31:13.472Z,101297.78
2023-04-09T20:33:16.337Z,101290.66
2023-04-09T20:35:19.266Z,101298.44
2023-04-09T20:37:22.092Z,101294.94
2023-04-09T20:39:26.836Z,101294.00
2023-04-09T20:41:29.576Z,101290.41
2023-04-09T20:43:33.817Z,101287.72
2023-04-09T20:45:36.644Z,101292.91
2023-04-09T20:47:39.615Z,101289.50
2023-04-09T20:49:43.016Z,101291.22
2023-04-09T20:51:46.195Z,101285.97
2023-04-09T20:53:49.160Z,101288.53
2023-04-09T20:55:53.035Z,101289.22
2023-04-09T20:57:56.415Z,101276.16
2023-04-09T21:00:00.842Z,101281.31
2023-04-09T21:02:03.851Z,101286.47
2023-04-09T21:04:07.183Z,101282.94
2023-04-09T21:06:10.382Z,101284.63
2023-04-09T21:08:15.331Z,101285.47
2023-04-09T21:10:18.248Z,101287.97
2023-04-09T21:12:21.251Z,101294.00
2023-04-09T21:14:24.122Z,101294.13
2023-04-09T21:16:29.762Z,101301.91
2023-04-09T21:18:32.735Z,101301.91
2023-04-09T21:20:35.599Z,101300.94
2023-04-09T21:22:38.388Z,101294.78
2023-04-09T21:24:41.303Z,101290.38
2023-04-09T21:26:49.958Z,101296.38
2023-04-09T21:28:54.739Z,101291.03
2023-04-09T21:30:57.952Z,101290.03
2023-04-09T21:33:04.019Z,101286.56
2023-04-09T21:35:07.448Z,101286.47
2023-04-09T21:37:10.350Z,101286.34
2023-04-09T21:39:13.344Z,101290.59
2023-04-09T21:41:16.268Z,101280.13
2023-04-09T21:43:19.027Z,101278.38
2023-04-09T21:45:22.080Z,101285.31
2023-04-09T21:47:26.281Z,101280.91
2023-04-09T21:49:30.402Z,101277.34
2023-04-09T21:51:33.233Z,101279.88
2023-04-09T21:53:36.086Z,101274.63
2023-04-09T21:55:38.960Z,101275.38
2023-04-09T21:57:41.976Z,101274.44
2023-04-09T21:59:44.856Z,101276.13
2023-04-09T22:01:49.906Z,101274.41
2023-04-09T22:03:52.965Z,101279.56
2023-04-09T22:05:57.207Z,101281.25
2023-04-09T22:07:59.975Z,101275.09
2023-04-09T22:10:02.740Z,101277.69
2023-04-09T22:12:05.907Z,101275.91
2023-04-09T22:14:08.686Z,101274.97
2023-04-09T22:16:11.637Z,101273.13
2023-04-09T22:18:14.455Z,101277.47
2023-04-09T22:20:17.323Z,101292.19
2023-04-09T22:22:21.704Z,101289.56
2023-04-09T22:24:27.175Z,101290.22
2023-04-09T22:26:30.280Z,101294.53
2023-04-09T22:28:33.079Z,101297.13
2023-04-09T22:30:35.986Z,101296.31
2023-04-09T22:32:38.835Z,101301.47
2023-04-09T22:34:41.737Z,101294.50
2023-04-09T22:36:44.670Z,101296.16
2023-04-09T22:38:48.789Z,101297.81
2023-04-09T22:40:51.643Z,101299.50
2023-04-09T22:42:54.499Z,101297.66
2023-04-09T22:44:57.329Z,101294.97
2023-04-09T22:47:00.273Z,101291.44
2023-04-09T22:49:05.578Z,101294.78
2023-04-09T22:51:08.969Z,101297.25
2023-04-09T22:53:11.949Z,101289.34
2023-04-09T22:55:16.496Z,101291.84
2023-04-09T22:57:19.409Z,101278.78
2023-04-09T22:59:23.164Z,101284.72
2023-04-09T23:01:31.464Z,101283.72
2023-04-09T23:03:34.320Z,101287.94
2023-04-09T23:05:37.525Z,101291.25
2023-04-09T23:07:42.641Z,101289.50
2023-04-09T23:09:46.117Z,101288.63
2023-04-09T23:11:50.324Z,101288.56
2023-04-09T23:13:53.106Z,101292.91
2023-04-09T23:15:55.939Z,101301.44
2023-04-09T23:17:58.828Z,101302.25
2023-04-09T23:20:01.756Z,101301.44
2023-04-09T23:22:04.556Z,101292.84
2023-04-09T23:24:07.313Z,101296.22
2023-04-09T23:26:10.429Z,101297.06
2023-04-09T23:28:14.483Z,101294.38
2023-04-09T23:30:18.088Z,101293.47
2023-04-09T23:32:21.180Z,101289.97
2023-04-09T23:34:24.222Z,101290.69
2023-04-09T23:36:27.736Z,101288.88
2023-04-09T23:38:30.776Z,101285.19
2023-04-09T23:40:33.625Z,101284.28